createdAt,value
2018-06-04T00:00:11.698Z,23.68
2018-06-04T00:01:11.716Z,23.73
2018-06-04T00:02:11.474Z,23.69
2018-06-04T00:03:11.770Z,23.66
2018-06-04T00:04:11.791Z,23.56
2018-06-04T00:05:11.544Z,23.65
2018-06-04T00:06:11.580Z,23.61
2018-06-04T00:07:11.610Z,23.55
2018-06-04T00:08:11.887Z,23.58
2018-06-04T00:09:11.631Z,23.5
2018-06-04T00:10:11.968Z,23.51
2018-06-04T00:11:11.966Z,23.51
2018-06-04T00:12:11.723Z,23.51
2018-06-04T00:13:11.487Z,23.46
2018-06-04T00:14:12.037Z,23.48
2018-06-04T00:15:12.103Z,23.54
2018-06-04T00:16:11.833Z,23.46
2018-06-04T00:17:12.118Z,23.43
2018-06-04T00:18:12.145Z,23.37
2018-06-04T00:19:12.163Z,23.39
2018-06-04T00:20:12.172Z,23.37
2018-06-04T00:21:12.200Z,23.36
2018-06-04T00:22:11.972Z,23.4
2018-06-04T00:23:12.278Z,23.25
2018-06-04T00:24:12.300Z,23.31
2018-06-04T00:25:12.317Z,23.24
2018-06-04T00:26:12.354Z,23.28
2018-06-04T00:27:12.400Z,23.18
2018-06-04T00:28:12.143Z,23.23
2018-06-04T00:29:12.414Z,23.24
2018-06-04T00:30:12.175Z,23.24
2018-06-04T00:31:12.478Z,23.25
2018-06-04T00:32:12.510Z,23.23
2018-06-04T00:33:12.558Z,23.21
2018-06-04T00:34:12.571Z,23.15
2018-06-04T00:35:12.329Z,23.1
2018-06-04T00:36:12.038Z,23.12
2018-06-04T00:37:12.353Z,23.12
2018-06-04T00:38:12.369Z,23.12
2018-06-04T00:39:12.688Z,23.05
2018-06-04T00:40:12.674Z,23.13
2018-06-04T00:41:12.708Z,23.02
2018-06-04T00:42:12.481Z,23.09
2018-06-04T00:43:12.512Z,22.98
2018-06-04T00:44:12.789Z,22.94
2018-06-04T00:45:12.810Z,23.02
2018-06-04T00:46:12.573Z,23
2018-06-04T00:47:12.858Z,23.02
2018-06-04T00:48:12.912Z,22.98
2018-06-04T00:49:12.898Z,22.94
2018-06-04T00:50:12.952Z,22.88
2018-06-04T00:51:12.963Z,22.94
2018-06-04T00:52:12.726Z,22.9
2018-06-04T00:53:12.745Z,22.91
2018-06-04T00:54:12.781Z,22.88
2018-06-04T00:55:13.079Z,22.83
2018-06-04T00:56:13.112Z,22.8
2018-06-04T00:57:13.105Z,22.85
2018-06-04T00:58:13.151Z,22.8
2018-06-04T00:59:12.890Z,22.83
2018-06-04T01:00:12.939Z,22.87
2018-06-04T01:01:12.947Z,22.73
2018-06-04T01:02:13.238Z,22.84
2018-06-04T01:03:13.005Z,22.8
2018-06-04T01:04:13.284Z,22.76
2018-06-04T01:05:13.055Z,22.73
2018-06-04T01:06:13.064Z,22.68
2018-06-04T01:07:13.097Z,22.66
2018-06-04T01:08:13.380Z,22.72
2018-06-04T01:09:13.411Z,22.7
2018-06-04T01:10:13.436Z,22.69
2018-06-04T01:11:13.513Z,22.69
2018-06-04T01:12:13.481Z,22.59
2018-06-04T01:13:13.532Z,22.6
2018-06-04T01:14:13.249Z,22.6
2018-06-04T01:15:13.304Z,22.7
2018-06-04T01:16:13.595Z,22.57
2018-06-04T01:17:13.609Z,22.57
2018-06-04T01:18:13.087Z,22.55
2018-06-04T01:19:13.394Z,22.54
2018-06-04T01:20:13.710Z,22.6
2018-06-04T01:21:13.453Z,22.48
2018-06-04T01:22:13.756Z,22.51
2018-06-04T01:23:13.770Z,22.47
2018-06-04T01:24:13.797Z,22.5
2018-06-04T01:25:13.812Z,22.51
2018-06-04T01:26:13.833Z,22.6
2018-06-04T01:27:13.881Z,22.57
2018-06-04T01:28:13.599Z,22.53
2018-06-04T01:29:13.649Z,22.53
2018-06-04T01:30:13.661Z,22.48
2018-06-04T01:31:13.694Z,22.48
2018-06-04T01:32:13.720Z,22.44
2018-06-04T01:33:13.754Z,22.44
2018-06-04T01:34:14.022Z,22.53
2018-06-04T01:35:14.082Z,22.44
2018-06-04T01:36:14.084Z,22.48
2018-06-04T01:37:13.563Z,22.39
2018-06-04T01:38:13.875Z,22.39
2018-06-04T01:39:14.139Z,22.43
2018-06-04T01:40:14.192Z,22.44
2018-06-04T01:41:14.209Z,22.35
2018-06-04T01:42:13.954Z,22.35
2018-06-04T01:43:14.263Z,22.36
2018-06-04T01:44:14.006Z,22.41
2018-06-04T01:45:14.033Z,22.23
2018-06-04T01:46:14.055Z,22.26
2018-06-04T01:47:14.339Z,22.23
2018-06-04T01:48:14.107Z,22.28
2018-06-04T01:49:14.398Z,22.28
2018-06-04T01:50:14.427Z,22.26
2018-06-04T01:51:14.161Z,22.32
2018-06-04T01:52:14.470Z,22.23
2018-06-04T01:53:14.207Z,22.2
2018-06-04T01:54:14.281Z,22.2
2018-06-04T01:55:14.542Z,22.22
2018-06-04T01:56:14.282Z,22.14
2018-06-04T01:57:14.588Z,22.13
2018-06-04T01:58:14.594Z,22.13
2018-06-04T01:59:14.637Z,22.14
2018-06-04T02:00:14.660Z,22.15
2018-06-04T02:01:14.430Z,22.13
2018-06-04T02:02:14.438Z,22.04
2018-06-04T02:03:14.732Z,22.06
2018-06-04T02:04:14.496Z,22.02
2018-06-04T02:05:14.509Z,22.02
2018-06-04T02:06:14.805Z,22
2018-06-04T02:07:14.836Z,22.04
2018-06-04T02:08:14.863Z,22.04
2018-06-04T02:09:14.629Z,21.95
2018-06-04T02:10:14.904Z,22.02
2018-06-04T02:11:14.648Z,22.02
2018-06-04T02:12:14.689Z,21.98
2018-06-04T02:13:14.702Z,21.98
2018-06-04T02:14:15.004Z,22.02
2018-06-04T02:15:15.043Z,21.95
2018-06-04T02:16:14.515Z,21.98
2018-06-04T02:17:15.074Z,22
2018-06-04T02:18:14.552Z,21.91
2018-06-04T02:19:14.597Z,21.96
2018-06-04T02:20:15.155Z,21.92
2018-06-04T02:21:14.634Z,21.88
2018-06-04T02:22:14.928Z,21.77
2018-06-04T02:23:15.229Z,21.88
2018-06-04T02:24:14.978Z,21.88
2018-06-04T02:25:15.243Z,21.89
2018-06-04T02:26:15.028Z,21.79
2018-06-04T02:27:15.291Z,21.88
2018-06-04T02:28:15.331Z,21.82
2018-06-04T02:29:15.387Z,21.8
2018-06-04T02:30:15.127Z,21.83
2018-06-04T02:31:15.426Z,21.82
2018-06-04T02:32:15.446Z,21.8
2018-06-04T02:33:15.179Z,21.77
2018-06-04T02:34:15.478Z,21.72
2018-06-04T02:35:15.509Z,21.67
2018-06-04T02:36:15.525Z,21.73
2018-06-04T02:37:15.001Z,21.7
2018-06-04T02:38:15.573Z,21.66
2018-06-04T02:39:15.581Z,21.67
2018-06-04T02:40:15.640Z,21.66
2018-06-04T02:41:15.096Z,21.66
2018-06-04T02:42:15.707Z,21.69
2018-06-04T02:43:15.691Z,21.58
2018-06-04T02:44:15.466Z,21.58
2018-06-04T02:45:15.475Z,21.58
2018-06-04T02:46:15.492Z,21.69
2018-06-04T02:47:15.534Z,21.58
2018-06-04T02:48:15.833Z,21.6
2018-06-04T02:49:15.572Z,21.6
2018-06-04T02:50:16.309Z,21.6
2018-06-04T02:51:15.883Z,21.55
2018-06-04T02:52:15.916Z,21.57
2018-06-04T02:53:15.933Z,21.51
2018-06-04T02:54:15.952Z,21.48
2018-06-04T02:55:15.992Z,21.43
2018-06-04T02:56:15.995Z,21.43
2018-06-04T02:57:15.742Z,21.51
2018-06-04T02:58:15.796Z,21.51
2018-06-04T02:59:16.097Z,21.46
2018-06-04T03:00:16.116Z,21.45
2018-06-04T03:01:15.846Z,21.45
2018-06-04T03:02:15.874Z,21.43
2018-06-04T03:03:15.905Z,21.42
2018-06-04T03:04:16.228Z,21.51
2018-06-04T03:05:16.226Z,21.4
2018-06-04T03:06:15.992Z,21.54
2018-06-04T03:07:16.000Z,21.48
2018-06-04T03:08:16.290Z,21.43
2018-06-04T03:09:16.030Z,21.4
2018-06-04T03:10:16.071Z,21.46
2018-06-04T03:11:16.372Z,21.35
2018-06-04T03:12:16.101Z,21.35
2018-06-04T03:13:16.430Z,21.39
2018-06-04T03:14:16.162Z,21.42
2018-06-04T03:15:16.456Z,21.43
2018-06-04T03:16:16.468Z,21.37
2018-06-04T03:17:16.236Z,21.37
2018-06-04T03:18:16.524Z,21.39
2018-06-04T03:19:16.279Z,21.35
2018-06-04T03:20:16.304Z,21.36
2018-06-04T03:21:16.623Z,21.39
2018-06-04T03:22:16.602Z,21.39
2018-06-04T03:23:16.394Z,21.35
2018-06-04T03:24:16.380Z,21.36
2018-06-04T03:25:16.689Z,21.35
2018-06-04T03:26:16.459Z,21.37
2018-06-04T03:27:16.713Z,21.4
2018-06-04T03:28:16.478Z,21.36
2018-06-04T03:29:16.511Z,21.45
2018-06-04T03:30:16.530Z,21.4
2018-06-04T03:31:16.577Z,21.42
2018-06-04T03:32:16.592Z,21.35
2018-06-04T03:33:16.866Z,21.32
2018-06-04T03:34:16.626Z,21.4
2018-06-04T03:35:16.649Z,21.4
2018-06-04T03:36:16.965Z,21.33
2018-06-04T03:37:16.430Z,21.27
2018-06-04T03:38:16.998Z,21.4
2018-06-04T03:39:17.025Z,21.42
2018-06-04T03:40:17.067Z,21.39
2018-06-04T03:41:17.163Z,21.33
2018-06-04T03:42:17.090Z,21.36
2018-06-04T03:43:17.110Z,21.37
2018-06-04T03:44:16.856Z,21.4
2018-06-04T03:45:17.176Z,21.35
2018-06-04T03:46:17.183Z,21.33
2018-06-04T03:47:17.230Z,21.33
2018-06-04T03:48:16.965Z,21.36
2018-06-04T03:49:17.294Z,21.35
2018-06-04T03:50:17.284Z,21.39
2018-06-04T03:51:17.298Z,21.3
2018-06-04T03:52:17.041Z,21.39
2018-06-04T03:53:17.329Z,21.37
2018-06-04T03:54:17.369Z,21.36
2018-06-04T03:55:17.397Z,21.36
2018-06-04T03:56:17.411Z,21.4
2018-06-04T03:57:17.438Z,21.32
2018-06-04T03:58:17.450Z,21.4
2018-06-04T03:59:17.479Z,21.37
2018-06-04T04:00:17.248Z,21.4
2018-06-04T04:01:17.244Z,21.43
2018-06-04T04:02:17.553Z,21.37
2018-06-04T04:03:17.574Z,21.4
2018-06-04T04:04:17.602Z,21.39
2018-06-04T04:05:17.343Z,21.35
2018-06-04T04:06:17.649Z,21.37
2018-06-04T04:07:17.407Z,21.37
2018-06-04T04:08:17.180Z,21.4
2018-06-04T04:09:17.736Z,21.37
2018-06-04T04:10:17.725Z,21.36
2018-06-04T04:11:17.778Z,21.4
2018-06-04T04:12:17.526Z,21.33
2018-06-04T04:13:17.546Z,21.42
2018-06-04T04:14:17.843Z,21.43
2018-06-04T04:15:17.853Z,21.46
2018-06-04T04:16:17.866Z,21.42
2018-06-04T04:17:17.645Z,21.43
2018-06-04T04:18:17.935Z,21.37
2018-06-04T04:19:18.007Z,21.4
2018-06-04T04:20:17.960Z,21.4
2018-06-04T04:21:17.716Z,21.43
2018-06-04T04:22:17.743Z,21.5
2018-06-04T04:23:18.065Z,21.52
2018-06-04T04:24:18.059Z,21.51
2018-06-04T04:25:18.084Z,21.52
2018-06-04T04:26:18.124Z,21.43
2018-06-04T04:27:17.876Z,21.5
2018-06-04T04:28:18.184Z,21.55
2018-06-04T04:29:17.912Z,21.43
2018-06-04T04:30:17.935Z,21.48
2018-06-04T04:31:18.235Z,21.6
2018-06-04T04:32:18.263Z,21.62
2018-06-04T04:33:18.275Z,21.61
2018-06-04T04:34:18.317Z,21.57
2018-06-04T04:35:18.502Z,21.58
2018-06-04T04:36:18.371Z,21.61
2018-06-04T04:37:18.366Z,21.58
2018-06-04T04:38:18.128Z,21.6
2018-06-04T04:39:18.140Z,21.58
2018-06-04T04:40:18.185Z,21.6
2018-06-04T04:41:18.491Z,21.61
2018-06-04T04:42:18.509Z,21.64
2018-06-04T04:43:18.511Z,21.61
2018-06-04T04:44:18.556Z,21.67
2018-06-04T04:45:18.548Z,21.72
2018-06-04T04:46:18.317Z,21.67
2018-06-04T04:47:18.361Z,21.73
2018-06-04T04:48:18.843Z,21.7
2018-06-04T04:49:18.400Z,21.73
2018-06-04T04:50:18.683Z,21.69
2018-06-04T04:51:18.430Z,21.73
2018-06-04T04:52:18.465Z,21.79
2018-06-04T04:53:18.201Z,21.72
2018-06-04T04:54:18.776Z,21.8
2018-06-04T04:55:18.526Z,21.82
2018-06-04T04:56:18.823Z,21.8
2018-06-04T04:57:18.557Z,21.82
2018-06-04T04:58:18.915Z,21.8
2018-06-04T04:59:18.888Z,21.82
2018-06-04T05:00:18.638Z,21.8
2018-06-04T05:01:18.952Z,21.91
2018-06-04T05:02:18.668Z,21.83
2018-06-04T05:03:18.718Z,21.95
2018-06-04T05:04:19.003Z,21.96
2018-06-04T05:05:19.043Z,21.92
2018-06-04T05:06:18.766Z,21.95
2018-06-04T05:07:19.324Z,21.98
2018-06-04T05:08:19.111Z,21.98
2018-06-04T05:09:19.135Z,21.96
2018-06-04T05:10:18.979Z,22.02
2018-06-04T05:11:18.901Z,22.04
2018-06-04T05:12:18.921Z,21.96
2018-06-04T05:13:19.237Z,21.96
2018-06-04T05:14:19.257Z,22
2018-06-04T05:15:19.002Z,21.99
2018-06-04T05:16:19.363Z,22.02
2018-06-04T05:17:18.774Z,22.06
2018-06-04T05:18:19.070Z,22.06
2018-06-04T05:19:19.436Z,22.11
2018-06-04T05:20:19.127Z,22.17
2018-06-04T05:21:19.394Z,22.11
2018-06-04T05:22:19.450Z,22.11
2018-06-04T05:23:19.461Z,22.14
2018-06-04T05:24:19.468Z,22.22
2018-06-04T05:25:19.514Z,22.32
2018-06-04T05:26:19.523Z,22.2
2018-06-04T05:27:19.281Z,22.28
2018-06-04T05:28:19.588Z,22.29
2018-06-04T05:29:19.611Z,22.3
2018-06-04T05:30:19.619Z,22.33
2018-06-04T05:31:19.874Z,22.38
2018-06-04T05:32:19.403Z,22.38
2018-06-04T05:33:19.405Z,22.45
2018-06-04T05:34:19.183Z,22.5
2018-06-04T05:35:19.472Z,22.48
2018-06-04T05:36:19.484Z,22.53
2018-06-04T05:37:19.806Z,22.44
2018-06-04T05:38:19.547Z,22.53
2018-06-04T05:39:19.831Z,22.55
2018-06-04T05:40:19.843Z,22.57
2018-06-04T05:41:19.889Z,22.59
2018-06-04T05:42:19.720Z,22.62
2018-06-04T05:43:19.908Z,22.66
2018-06-04T05:44:19.685Z,22.68
2018-06-04T05:45:19.975Z,22.69
2018-06-04T05:46:20.009Z,22.7
2018-06-04T05:47:20.037Z,22.76
2018-06-04T05:48:20.058Z,22.8
2018-06-04T05:49:19.813Z,22.81
2018-06-04T05:50:20.107Z,22.88
2018-06-04T05:51:20.128Z,22.87
2018-06-04T05:52:19.857Z,22.91
2018-06-04T05:53:19.908Z,22.94
2018-06-04T05:54:20.201Z,22.91
2018-06-04T05:55:19.668Z,22.99
2018-06-04T05:56:20.504Z,23.03
2018-06-04T05:57:20.286Z,23.02
2018-06-04T05:58:20.280Z,23.15
2018-06-04T05:59:20.341Z,23.12
2018-06-04T06:00:20.392Z,23.15
2018-06-04T06:01:20.357Z,23.17
2018-06-04T06:02:20.398Z,23.2
2018-06-04T06:03:20.429Z,23.18
2018-06-04T06:04:20.467Z,23.25
2018-06-04T06:05:20.191Z,23.28
2018-06-04T06:06:20.496Z,23.24
2018-06-04T06:07:20.498Z,23.37
2018-06-04T06:08:20.529Z,23.4
2018-06-04T06:09:20.447Z,23.36
2018-06-04T06:10:20.291Z,23.48
2018-06-04T06:11:20.608Z,23.47
2018-06-04T06:12:20.664Z,23.51
2018-06-04T06:13:20.387Z,23.54
2018-06-04T06:14:20.541Z,23.55
2018-06-04T06:15:20.714Z,23.61
2018-06-04T06:16:20.722Z,23.63
2018-06-04T06:17:20.734Z,23.63
2018-06-04T06:18:20.510Z,23.63
2018-06-04T06:19:20.804Z,23.66
2018-06-04T06:20:20.835Z,23.73
2018-06-04T06:21:20.853Z,23.65
2018-06-04T06:22:20.592Z,23.71
2018-06-04T06:23:20.892Z,23.71
2018-06-04T06:24:20.923Z,23.77
2018-06-04T06:25:20.643Z,23.74
2018-06-04T06:26:20.990Z,23.78
2018-06-04T06:27:20.724Z,23.8
2018-06-04T06:28:21.019Z,23.76
2018-06-04T06:29:20.762Z,23.71
2018-06-04T06:30:21.065Z,23.81
2018-06-04T06:31:21.087Z,23.8
2018-06-04T06:32:21.107Z,23.8
2018-06-04T06:33:21.148Z,23.84
2018-06-04T06:34:20.944Z,23.88
2018-06-04T06:35:20.899Z,23.96
2018-06-04T06:36:21.225Z,23.93
2018-06-04T06:37:20.696Z,23.86
2018-06-04T06:38:20.993Z,23.99
2018-06-04T06:39:21.054Z,24.03
2018-06-04T06:40:21.045Z,24.03
2018-06-04T06:41:21.071Z,24.1
2018-06-04T06:42:21.366Z,24.14
2018-06-04T06:43:21.126Z,24.11
2018-06-04T06:44:21.441Z,24.16
2018-06-04T06:45:21.157Z,24.14
2018-06-04T06:46:21.198Z,24.16
2018-06-04T06:47:21.486Z,24.2
2018-06-04T06:48:21.492Z,24.24
2018-06-04T06:49:21.541Z,24.28
2018-06-04T06:50:21.562Z,24.2
2018-06-04T06:51:21.582Z,24.32
2018-06-04T06:52:21.617Z,24.4
2018-06-04T06:53:21.346Z,24.4
2018-06-04T06:54:21.402Z,24.38
2018-06-04T06:55:21.785Z,24.43
2018-06-04T06:56:21.422Z,24.45
2018-06-04T06:57:21.714Z,24.51
2018-06-04T06:58:21.750Z,24.53
2018-06-04T06:59:21.783Z,24.57
2018-06-04T07:00:21.801Z,24.63
2018-06-04T07:01:21.825Z,24.6
2018-06-04T07:02:21.862Z,24.6
2018-06-04T07:03:21.892Z,24.76
2018-06-04T07:04:21.904Z,24.77
2018-06-04T07:05:21.671Z,24.8
2018-06-04T07:06:21.415Z,24.84
2018-06-04T07:07:21.716Z,24.85
2018-06-04T07:08:22.001Z,24.98
2018-06-04T07:09:22.061Z,24.98
2018-06-04T07:10:21.805Z,25.04
2018-06-04T07:11:22.093Z,25.11
2018-06-04T07:12:22.110Z,25.14
2018-06-04T07:13:21.856Z,25.21
2018-06-04T07:14:22.371Z,25.22
2018-06-04T07:15:22.174Z,25.25
2018-06-04T07:16:22.204Z,25.32
2018-06-04T07:17:22.248Z,25.43
2018-06-04T07:18:22.264Z,25.46
2018-06-04T07:19:22.299Z,25.5
2018-06-04T07:20:22.303Z,25.58
2018-06-04T07:21:22.371Z,25.6
2018-06-04T07:22:22.392Z,25.7
2018-06-04T07:23:22.094Z,25.68
2018-06-04T07:24:22.131Z,25.73
2018-06-04T07:25:22.452Z,25.84
2018-06-04T07:26:22.465Z,25.85
2018-06-04T07:27:22.485Z,25.83
2018-06-04T07:28:22.246Z,25.9
2018-06-04T07:29:22.543Z,25.96
2018-06-04T07:30:22.311Z,25.98
2018-06-04T07:31:22.580Z,26.1
2018-06-04T07:32:22.618Z,26.07
2018-06-04T07:33:22.376Z,26.18
2018-06-04T07:34:22.657Z,26.13
2018-06-04T07:35:22.677Z,26.29
2018-06-04T07:36:22.724Z,26.31
2018-06-04T07:37:22.472Z,26.28
2018-06-04T07:38:22.503Z,26.43
2018-06-04T07:39:22.528Z,26.45
2018-06-04T07:40:22.540Z,26.47
2018-06-04T07:41:23.108Z,26.63
2018-06-04T07:42:22.587Z,26.58
2018-06-04T07:43:22.619Z,26.66
2018-06-04T07:44:22.995Z,26.68
2018-06-04T07:45:22.972Z,26.77
2018-06-04T07:46:22.975Z,26.81
2018-06-04T07:47:23.009Z,26.88
2018-06-04T07:48:23.071Z,26.93
2018-06-04T07:49:23.033Z,26.93
2018-06-04T07:50:22.804Z,27
2018-06-04T07:51:22.569Z,27.02
2018-06-04T07:52:23.119Z,27.08
2018-06-04T07:53:23.160Z,27.07
2018-06-04T07:54:22.932Z,27.11
2018-06-04T07:55:23.200Z,27.2
2018-06-04T07:56:23.231Z,27.29
2018-06-04T07:57:23.495Z,27.33
2018-06-04T07:58:23.303Z,27.37
2018-06-04T07:59:23.311Z,27.27
2018-06-04T08:00:23.352Z,27.45
2018-06-04T08:01:23.373Z,27.47
2018-06-04T08:02:23.402Z,27.52
2018-06-04T08:03:23.141Z,27.47
2018-06-04T08:04:23.567Z,27.45
2018-06-04T08:05:23.490Z,27.59
2018-06-04T08:06:23.709Z,27.64
2018-06-04T08:07:23.522Z,27.58
2018-06-04T08:08:23.294Z,27.68
2018-06-04T08:09:23.589Z,27.67
2018-06-04T08:10:23.491Z,27.71
2018-06-04T08:11:23.627Z,27.77
2018-06-04T08:12:23.663Z,27.77
2018-06-04T08:13:23.704Z,27.74
2018-06-04T08:14:23.446Z,27.86
2018-06-04T08:15:23.473Z,27.87
2018-06-04T08:16:23.501Z,27.92
2018-06-04T08:17:23.507Z,27.93
2018-06-04T08:18:23.550Z,28.01
2018-06-04T08:19:23.573Z,27.96
2018-06-04T08:20:23.861Z,27.95
2018-06-04T08:21:23.640Z,28
2018-06-04T08:22:23.688Z,28.07
2018-06-04T08:23:23.951Z,28.02
2018-06-04T08:24:23.965Z,28.04
2018-06-04T08:25:24.022Z,28.02
2018-06-04T08:26:24.035Z,28
2018-06-04T08:27:24.064Z,28.07
2018-06-04T08:28:24.092Z,27.96
2018-06-04T08:29:24.310Z,27.98
2018-06-04T08:30:24.144Z,28
2018-06-04T08:31:23.907Z,28.04
2018-06-04T08:32:24.211Z,28.11
2018-06-04T08:33:24.218Z,28.07
2018-06-04T08:34:24.247Z,28.04
2018-06-04T08:35:24.265Z,28.1
2018-06-04T08:36:24.041Z,28.07
2018-06-04T08:37:24.349Z,28.1
2018-06-04T08:38:24.462Z,28.15
2018-06-04T08:39:24.400Z,28.2
2018-06-04T08:40:24.638Z,28.19
2018-06-04T08:41:24.450Z,28.26
2018-06-04T08:42:24.496Z,28.23
2018-06-04T08:43:24.522Z,28.23
2018-06-04T08:44:24.563Z,28.29
2018-06-04T08:45:24.557Z,28.26
2018-06-04T08:46:24.615Z,28.2
2018-06-04T08:47:24.358Z,28.27
2018-06-04T08:48:24.654Z,28.23
2018-06-04T08:49:24.668Z,28.29
2018-06-04T08:50:24.719Z,28.27
2018-06-04T08:51:24.718Z,28.25
2018-06-04T08:52:24.759Z,28.29
2018-06-04T08:53:24.796Z,28.29
2018-06-04T08:54:24.823Z,28.35
2018-06-04T08:55:24.811Z,28.3
2018-06-04T08:56:25.092Z,28.32
2018-06-04T08:57:24.878Z,28.33
2018-06-04T08:58:24.935Z,28.29
2018-06-04T08:59:24.956Z,28.27
2018-06-04T09:00:24.970Z,28.38
2018-06-04T09:01:24.727Z,28.33
2018-06-04T09:02:24.750Z,28.35
2018-06-04T09:03:24.780Z,28.38
2018-06-04T09:04:25.082Z,28.37
2018-06-04T09:05:25.090Z,28.37
2018-06-04T09:06:25.127Z,28.35
2018-06-04T09:07:24.891Z,28.38
2018-06-04T09:08:25.185Z,28.37
2018-06-04T09:09:25.200Z,28.42
2018-06-04T09:10:24.973Z,28.41
2018-06-04T09:11:25.254Z,28.48
2018-06-04T09:12:25.317Z,28.42
2018-06-04T09:13:25.056Z,28.52
2018-06-04T09:14:25.085Z,28.48
2018-06-04T09:15:25.393Z,28.52
2018-06-04T09:16:25.406Z,28.52
2018-06-04T09:17:25.438Z,28.63
2018-06-04T09:18:25.205Z,28.6
2018-06-04T09:19:25.488Z,28.76
2018-06-04T09:20:25.519Z,28.75
2018-06-04T09:21:25.556Z,28.72
2018-06-04T09:22:25.295Z,28.78
2018-06-04T09:23:25.592Z,28.81
2018-06-04T09:24:25.619Z,28.89
2018-06-04T09:25:25.686Z,28.88
2018-06-04T09:26:25.428Z,28.96
2018-06-04T09:27:25.761Z,28.96
2018-06-04T09:28:25.723Z,29.05
2018-06-04T09:29:25.227Z,28.96
2018-06-04T09:30:25.527Z,29.14
2018-06-04T09:31:25.818Z,29.19
2018-06-04T09:32:26.014Z,29.26
2018-06-04T09:33:25.606Z,29.39
2018-06-04T09:34:25.923Z,29.49
2018-06-04T09:35:25.962Z,29.56
2018-06-04T09:36:25.702Z,29.56
2018-06-04T09:37:26.002Z,29.71
2018-06-04T09:38:26.019Z,29.69
2018-06-04T09:39:26.060Z,29.86
2018-06-04T09:40:25.825Z,29.94
2018-06-04T09:41:26.105Z,30.05
2018-06-04T09:42:26.128Z,30.1
2018-06-04T09:43:26.163Z,30.19
2018-06-04T09:44:26.210Z,30.28
2018-06-04T09:45:26.223Z,30.35
2018-06-04T09:46:25.970Z,30.46
2018-06-04T09:47:26.355Z,30.51
2018-06-04T09:48:26.314Z,30.61
2018-06-04T09:49:26.050Z,30.73
2018-06-04T09:50:26.418Z,30.69
2018-06-04T09:51:26.417Z,30.85
2018-06-04T09:52:26.143Z,30.85
2018-06-04T09:53:26.471Z,30.97
2018-06-04T09:54:26.192Z,31.02
2018-06-04T09:55:26.238Z,31.12
2018-06-04T09:56:26.552Z,30.97
2018-06-04T09:57:26.569Z,31.03
2018-06-04T09:58:26.591Z,31.1
2018-06-04T09:59:26.645Z,31.18
2018-06-04T10:00:26.391Z,31.14
2018-06-04T10:01:26.684Z,31.25
2018-06-04T10:02:26.466Z,31.24
2018-06-04T10:03:26.487Z,31.33
2018-06-04T10:04:26.492Z,31.39
2018-06-04T10:05:26.825Z,31.31
2018-06-04T10:06:26.831Z,31.24
2018-06-04T10:07:26.861Z,31.29
2018-06-04T10:08:26.955Z,31.39
2018-06-04T10:09:26.897Z,31.42
2018-06-04T10:10:26.678Z,31.44
2018-06-04T10:11:26.956Z,31.37
2018-06-04T10:12:27.015Z,31.33
2018-06-04T10:13:26.762Z,31.44
2018-06-04T10:14:26.778Z,31.34
2018-06-04T10:15:27.100Z,31.4
2018-06-04T10:16:27.143Z,31.39
2018-06-04T10:17:26.923Z,31.49
2018-06-04T10:18:27.166Z,31.47
2018-06-04T10:19:26.930Z,31.56
2018-06-04T10:20:27.233Z,31.47
2018-06-04T10:21:27.256Z,31.61
2018-06-04T10:22:27.360Z,31.59
2018-06-04T10:23:27.351Z,31.62
2018-06-04T10:24:27.099Z,31.69
2018-06-04T10:25:27.373Z,31.76
2018-06-04T10:26:27.407Z,31.81
2018-06-04T10:27:27.464Z,31.87
2018-06-04T10:28:27.238Z,31.9
2018-06-04T10:29:27.233Z,32.07
2018-06-04T10:30:27.505Z,32.09
2018-06-04T10:31:27.288Z,32.22
2018-06-04T10:32:27.309Z,32.27
2018-06-04T10:33:27.354Z,32.41
2018-06-04T10:34:27.647Z,32.46
2018-06-04T10:35:27.683Z,32.59
2018-06-04T10:36:27.723Z,32.68
2018-06-04T10:37:27.741Z,32.71
2018-06-04T10:38:27.497Z,32.75
2018-06-04T10:39:27.532Z,32.93
2018-06-04T10:40:27.618Z,33
2018-06-04T10:41:27.591Z,33.05
2018-06-04T10:42:27.353Z,33.24
2018-06-04T10:43:27.632Z,33.31
2018-06-04T10:44:27.950Z,33.3
2018-06-04T10:45:28.011Z,33.39
2018-06-04T10:46:28.068Z,33.36
2018-06-04T10:47:28.049Z,33.59
2018-06-04T10:48:28.073Z,33.52
2018-06-04T10:49:28.078Z,33.58
2018-06-04T10:50:28.108Z,33.64
2018-06-04T10:51:28.165Z,33.64
2018-06-04T10:52:28.199Z,33.68
2018-06-04T10:53:27.936Z,33.69
2018-06-04T10:54:28.267Z,33.71
2018-06-04T10:55:28.018Z,33.74
2018-06-04T10:56:28.300Z,33.76
2018-06-04T10:57:28.080Z,33.74
2018-06-04T10:58:28.377Z,33.79
2018-06-04T10:59:28.404Z,33.77
2018-06-04T11:00:28.448Z,33.77
2018-06-04T11:01:28.184Z,33.84
2018-06-04T11:02:28.224Z,33.77
2018-06-04T11:03:28.277Z,33.81
2018-06-04T11:04:28.293Z,33.8
2018-06-04T11:05:28.590Z,33.86
2018-06-04T11:06:28.633Z,33.87
2018-06-04T11:07:28.101Z,33.76
2018-06-04T11:08:28.405Z,33.81
2018-06-04T11:09:28.711Z,33.77
2018-06-04T11:10:28.727Z,33.81
2018-06-04T11:11:28.218Z,33.92
2018-06-04T11:12:28.524Z,33.92
2018-06-04T11:13:28.569Z,33.84
2018-06-04T11:14:28.603Z,33.89
2018-06-04T11:15:28.371Z,33.95
2018-06-04T11:16:28.933Z,33.92
2018-06-04T11:17:28.418Z,34.06
2018-06-04T11:18:28.732Z,34.08
2018-06-04T11:19:28.751Z,34.2
2018-06-04T11:20:28.796Z,34.23
2018-06-04T11:21:29.069Z,34.25
2018-06-04T11:22:29.150Z,34.27
2018-06-04T11:23:29.158Z,34.36
2018-06-04T11:24:29.185Z,34.39
2018-06-04T11:25:28.958Z,34.5
2018-06-04T11:26:29.265Z,34.58
2018-06-04T11:27:29.001Z,34.61
2018-06-04T11:28:29.032Z,34.73
2018-06-04T11:29:29.061Z,34.7
2018-06-04T11:30:29.538Z,34.71
2018-06-04T11:31:29.403Z,34.73
2018-06-04T11:32:29.172Z,34.86
2018-06-04T11:33:29.447Z,34.9
2018-06-04T11:34:28.968Z,34.99
2018-06-04T11:35:29.253Z,35.12
2018-06-04T11:36:29.562Z,35.26
2018-06-04T11:37:29.436Z,35.34
2018-06-04T11:38:29.339Z,35.3
2018-06-04T11:39:29.376Z,35.41
2018-06-04T11:40:29.424Z,35.45
2018-06-04T11:41:29.701Z,35.66
2018-06-04T11:42:29.758Z,35.74
2018-06-04T11:43:29.520Z,35.83
2018-06-04T11:44:29.549Z,35.86
2018-06-04T11:45:29.851Z,36
2018-06-04T11:46:29.617Z,36.16
2018-06-04T11:47:29.928Z,36.27
2018-06-04T11:48:29.726Z,36.45
2018-06-04T11:49:29.964Z,36.4
2018-06-04T11:50:29.734Z,36.51
2018-06-04T11:51:29.774Z,36.49
2018-06-04T11:52:29.814Z,36.68
2018-06-04T11:53:30.125Z,36.73
2018-06-04T11:54:30.132Z,36.81
2018-06-04T11:55:30.177Z,36.84
2018-06-04T11:56:30.462Z,36.98
2018-06-04T11:57:30.252Z,36.99
2018-06-04T11:58:30.283Z,36.96
2018-06-04T11:59:29.756Z,37.06
2018-06-04T12:00:30.071Z,37.1
2018-06-04T12:01:30.103Z,37.25
2018-06-04T12:02:30.421Z,37.29
2018-06-04T12:03:30.151Z,37.36
2018-06-04T12:04:30.468Z,37.45
2018-06-04T12:05:30.484Z,37.53
2018-06-04T12:06:30.560Z,37.56
2018-06-04T12:07:30.585Z,37.56
2018-06-04T12:08:30.604Z,37.67
2018-06-04T12:09:30.376Z,37.77
2018-06-04T12:10:30.409Z,37.87
2018-06-04T12:11:31.022Z,37.92
2018-06-04T12:12:30.596Z,38.04
2018-06-04T12:13:30.793Z,38.12
2018-06-04T12:14:30.545Z,38.2
2018-06-04T12:15:30.592Z,38.26
2018-06-04T12:16:30.895Z,38.33
2018-06-04T12:17:30.737Z,38.4
2018-06-04T12:18:30.925Z,38.52
2018-06-04T12:19:30.439Z,38.6
2018-06-04T12:20:31.030Z,38.62
2018-06-04T12:21:31.020Z,38.76
2018-06-04T12:22:31.059Z,38.83
2018-06-04T12:23:31.121Z,38.86
2018-06-04T12:24:31.130Z,38.97
2018-06-04T12:25:31.167Z,38.97
2018-06-04T12:26:30.945Z,39.17
2018-06-04T12:27:30.976Z,39.17
2018-06-04T12:28:31.274Z,39.31
2018-06-04T12:29:31.295Z,39.24
2018-06-04T12:30:31.378Z,39.44
2018-06-04T12:31:31.117Z,39.51
2018-06-04T12:32:31.407Z,39.62
2018-06-04T12:33:31.445Z,39.63
2018-06-04T12:34:31.206Z,39.63
2018-06-04T12:35:30.979Z,39.77
2018-06-04T12:36:31.557Z,39.81
2018-06-04T12:37:31.349Z,39.89
2018-06-04T12:38:31.345Z,39.93
2018-06-04T12:39:31.380Z,39.94
2018-06-04T12:40:31.417Z,40.04
2018-06-04T12:41:31.742Z,40.16
2018-06-04T12:42:31.742Z,40.11
2018-06-04T12:43:31.242Z,40.24
2018-06-04T12:44:31.565Z,40.3
2018-06-04T12:45:31.889Z,40.4
2018-06-04T12:46:31.649Z,40.46
2018-06-04T12:47:31.928Z,40.5
2018-06-04T12:48:31.952Z,40.53
2018-06-04T12:49:32.022Z,40.58
2018-06-04T12:50:32.019Z,40.58
2018-06-04T12:51:32.068Z,40.69
2018-06-04T12:52:31.823Z,40.63
2018-06-04T12:53:32.137Z,40.66
2018-06-04T12:54:31.896Z,40.75
2018-06-04T12:55:32.228Z,40.72
2018-06-04T12:56:32.272Z,40.81